createdAt,value
2023-04-08T00:01:20.594Z,19.80
2023-04-08T00:03:47.641Z,24.40
2023-04-08T00:06:14.747Z,22.45
2023-04-08T00:08:41.830Z,20.55
2023-04-08T00:11:08.869Z,24.00
2023-04-08T00:13:36.321Z,21.77
2023-04-08T00:16:03.510Z,22.63
2023-04-08T00:18:30.725Z,19.88
2023-04-08T00:20:57.783Z,20.63
2023-04-08T00:23:24.884Z,25.33
2023-04-08T00:25:51.963Z,24.00
2023-04-08T00:28:18.906Z,22.00
2023-04-08T00:30:45.933Z,22.33
2023-04-08T00:33:15.212Z,23.58
2023-04-08T00:35:42.245Z,22.20
2023-04-08T00:38:10.138Z,20.52
2023-04-08T00:40:38.558Z,20.65
2023-04-08T00:43:05.565Z,21.92
2023-04-08T00:45:33.879Z,26.30
2023-04-08T00:48:02.902Z,22.95
2023-04-08T00:50:29.973Z,25.73
2023-04-08T00:52:57.148Z,22.80
2023-04-08T00:55:24.440Z,25.42
2023-04-08T00:57:52.216Z,20.80
2023-04-08T01:00:19.372Z,21.92
2023-04-08T01:02:59.338Z,23.70
2023-04-08T01:06:00.806Z,25.00
2023-04-08T01:08:31.428Z,20.93
2023-04-08T01:11:03.275Z,26.77
2023-04-08T01:13:34.573Z,24.33
2023-04-08T01:16:01.761Z,24.38
2023-04-08T01:18:31.029Z,25.05
2023-04-08T01:20:59.300Z,28.80
2023-04-08T01:24:13.403Z,27.95
2023-04-08T01:26:41.553Z,26.10
2023-04-08T01:29:11.272Z,25.73
2023-04-08T01:31:41.262Z,26.73
2023-04-08T01:34:11.798Z,26.02
2023-04-08T01:36:39.780Z,25.90
2023-04-08T01:39:07.633Z,24.42
2023-04-08T01:41:37.654Z,29.70
2023-04-08T01:44:07.944Z,28.83
2023-04-08T01:46:36.208Z,26.77
2023-04-08T01:49:04.436Z,26.67
2023-04-08T01:51:32.086Z,28.23
2023-04-08T01:53:59.153Z,30.20
2023-04-08T01:56:29.354Z,25.70
2023-04-08T01:59:00.740Z,33.50
2023-04-08T02:01:29.904Z,28.67
2023-04-08T02:03:59.454Z,25.92
2023-04-08T02:06:29.353Z,30.30
2023-04-08T02:08:56.960Z,28.35
2023-04-08T02:11:25.134Z,28.63
2023-04-08T02:13:52.959Z,31.33
2023-04-08T02:16:46.521Z,28.10
2023-04-08T02:19:31.064Z,27.85
2023-04-08T02:22:06.030Z,29.27
2023-04-08T02:24:36.149Z,28.52
2023-04-08T02:27:04.679Z,33.50
2023-04-08T02:29:38.035Z,31.45
2023-04-08T02:32:06.604Z,31.70
2023-04-08T02:34:35.803Z,32.65
2023-04-08T02:37:02.970Z,31.52
2023-04-08T02:39:33.645Z,36.67
2023-04-08T02:42:01.244Z,34.72
2023-04-08T02:44:28.342Z,34.72
2023-04-08T02:46:55.958Z,35.05
2023-04-08T02:49:22.998Z,39.33
2023-04-08T02:51:49.954Z,31.95
2023-04-08T02:54:17.042Z,30.88
2023-04-08T02:56:44.304Z,33.28
2023-04-08T02:59:11.370Z,37.15
2023-04-08T03:01:38.490Z,35.40
2023-04-08T03:04:05.966Z,32.85
2023-04-08T03:06:33.234Z,32.58
2023-04-08T03:09:00.211Z,30.20
2023-04-08T03:11:27.210Z,32.92
2023-04-08T03:13:54.193Z,31.40
2023-04-08T03:16:21.518Z,31.05
2023-04-08T03:18:50.656Z,31.92
2023-04-08T03:21:18.194Z,27.60
2023-04-08T03:23:46.296Z,33.42
2023-04-08T03:26:13.422Z,25.67
2023-04-08T03:28:40.409Z,28.98
2023-04-08T03:31:07.472Z,31.67
2023-04-08T03:33:34.471Z,31.45
2023-04-08T03:36:02.956Z,30.98
2023-04-08T03:38:30.125Z,29.77
2023-04-08T03:40:59.189Z,29.80
2023-04-08T03:43:26.267Z,27.45
2023-04-08T03:45:53.420Z,26.85
2023-04-08T03:48:20.537Z,33.22
2023-04-08T03:50:47.590Z,24.45
2023-04-08T03:53:14.592Z,28.17
2023-04-08T03:55:42.170Z,27.85
2023-04-08T03:58:09.250Z,31.92
2023-04-08T04:00:38.065Z,38.80
2023-04-08T04:03:05.149Z,34.85
2023-04-08T04:05:32.161Z,32.60
2023-04-08T04:07:59.069Z,34.08
2023-04-08T04:10:26.024Z,33.83
2023-04-08T04:12:53.063Z,32.38
2023-04-08T04:15:22.557Z,36.53
2023-04-08T04:17:52.919Z,30.33
2023-04-08T04:20:20.243Z,34.65
2023-04-08T04:22:47.342Z,27.70
2023-04-08T04:25:14.595Z,25.63
2023-04-08T04:27:41.831Z,31.30
2023-04-08T04:30:10.740Z,27.33
2023-04-08T04:32:37.806Z,22.92
2023-04-08T04:35:05.201Z,26.08
2023-04-08T04:37:32.284Z,26.75
2023-04-08T04:39:59.326Z,25.52
2023-04-08T04:42:26.621Z,25.05
2023-04-08T04:44:55.444Z,28.58
2023-04-08T04:47:23.204Z,24.13
2023-04-08T04:49:50.449Z,31.35
2023-04-08T04:52:17.571Z,27.27
2023-04-08T04:54:44.623Z,25.05
2023-04-08T04:57:11.566Z,26.05
2023-04-08T04:59:38.489Z,25.98
2023-04-08T05:02:05.852Z,27.73
2023-04-08T05:04:33.896Z,27.88
2023-04-08T05:07:02.785Z,30.23
2023-04-08T05:09:30.029Z,28.88
2023-04-08T05:11:57.230Z,32.10
2023-04-08T05:14:24.467Z,27.15
2023-04-08T05:16:51.412Z,28.98
2023-04-08T05:19:18.460Z,26.45
2023-04-08T05:21:45.538Z,27.55
2023-04-08T05:24:12.674Z,28.75
2023-04-08T05:26:39.775Z,27.45
2023-04-08T05:29:06.912Z,27.33
2023-04-08T05:31:34.136Z,31.45
2023-04-08T05:34:01.410Z,28.52
2023-04-08T05:36:28.705Z,28.90
2023-04-08T05:38:55.806Z,30.13
2023-04-08T05:41:22.766Z,31.27
2023-04-08T05:43:49.849Z,35.47
2023-04-08T05:46:17.512Z,27.60
2023-04-08T05:48:44.661Z,33.55
2023-04-08T05:51:15.790Z,35.42
2023-04-08T05:53:42.788Z,26.48
2023-04-08T05:56:09.982Z,33.25
2023-04-08T05:58:37.036Z,33.97
2023-04-08T06:01:04.322Z,32.83
2023-04-08T06:03:31.525Z,27.90
2023-04-08T06:05:58.737Z,25.83
2023-04-08T06:08:25.793Z,27.00
2023-04-08T06:10:52.910Z,36.33
2023-04-08T06:13:22.051Z,32.25
2023-04-08T06:15:50.379Z,33.83
2023-04-08T06:18:17.820Z,31.70
2023-04-08T06:20:46.975Z,32.22
2023-04-08T06:23:14.140Z,30.63
2023-04-08T06:25:44.041Z,33.67
2023-04-08T06:28:11.041Z,30.98
2023-04-08T06:30:38.065Z,30.25
2023-04-08T06:33:05.151Z,31.17
2023-04-08T06:35:32.732Z,35.35
2023-04-08T06:37:59.786Z,32.75
2023-04-08T06:40:26.921Z,33.97
2023-04-08T06:42:54.360Z,32.05
2023-04-08T06:45:37.208Z,32.92
2023-04-08T06:48:04.459Z,30.40
2023-04-08T06:50:31.637Z,32.80
2023-04-08T06:53:01.559Z,31.08
2023-04-08T06:58:09.545Z,29.48
2023-04-08T07:00:38.440Z,33.97
2023-04-08T07:03:06.851Z,35.17
2023-04-08T07:05:36.996Z,36.60
2023-04-08T07:08:04.354Z,36.33
2023-04-08T07:10:31.382Z,36.45
2023-04-08T07:12:59.748Z,34.08
2023-04-08T07:15:27.096Z,36.47
2023-04-08T07:17:57.015Z,39.25
2023-04-08T07:20:24.302Z,43.15
2023-04-08T07:22:51.499Z,37.88
2023-04-08T07:25:18.876Z,34.28
2023-04-08T07:27:45.917Z,35.67
2023-04-08T07:30:13.123Z,39.83
2023-04-08T07:32:40.539Z,42.00
2023-04-08T07:35:08.123Z,34.88
2023-04-08T07:37:37.942Z,33.55
2023-04-08T07:40:05.599Z,42.33
2023-04-08T07:42:32.694Z,40.90
2023-04-08T07:45:00.953Z,34.92
2023-04-08T07:47:31.609Z,36.53
2023-04-08T07:49:58.562Z,35.20
2023-04-08T07:52:26.403Z,37.25
2023-04-08T07:54:53.549Z,36.78
2023-04-08T07:57:25.683Z,42.92
2023-04-08T07:59:53.781Z,42.00
2023-04-08T08:02:25.442Z,39.97
2023-04-08T08:04:52.583Z,37.28
2023-04-08T08:07:19.564Z,35.97
2023-04-08T08:09:46.574Z,35.53
2023-04-08T08:12:13.642Z,43.30
2023-04-08T08:14:40.795Z,40.75
2023-04-08T08:17:07.800Z,42.65
2023-04-08T08:19:34.785Z,40.13
2023-04-08T08:22:01.759Z,38.25
2023-04-08T08:24:28.787Z,38.97
2023-04-08T08:26:55.905Z,44.33
2023-04-08T08:29:22.822Z,41.75
2023-04-08T08:31:49.901Z,39.92
2023-04-08T08:34:18.047Z,40.92
2023-04-08T08:36:45.055Z,38.50
2023-04-08T08:39:12.059Z,36.72
2023-04-08T08:41:39.131Z,41.92
2023-04-08T08:44:07.747Z,40.97
2023-04-08T08:46:36.852Z,37.50
2023-04-08T08:49:05.166Z,40.00
2023-04-08T08:51:33.404Z,38.80
2023-04-08T08:54:04.768Z,40.78
2023-04-08T08:56:34.329Z,40.20
2023-04-08T08:59:01.494Z,41.45
2023-04-08T09:01:37.962Z,42.17
2023-04-08T09:04:18.589Z,40.33
2023-04-08T09:06:50.358Z,40.83
2023-04-08T09:09:18.218Z,40.08
2023-04-08T09:11:48.578Z,41.42
2023-04-08T09:14:22.358Z,37.67
2023-04-08T09:16:50.320Z,37.47
2023-04-08T09:19:17.455Z,39.58
2023-04-08T09:21:44.410Z,41.72
2023-04-08T09:24:29.147Z,40.75
2023-04-08T09:26:56.689Z,41.30
2023-04-08T09:29:26.720Z,39.92
2023-04-08T09:31:59.397Z,44.53
2023-04-08T09:34:28.000Z,42.67
2023-04-08T09:36:56.358Z,40.35
2023-04-08T09:39:24.001Z,42.30
2023-04-08T09:41:52.642Z,42.08
2023-04-08T09:44:21.643Z,41.78
2023-04-08T09:46:54.712Z,41.55
2023-04-08T09:49:29.151Z,44.10
2023-04-08T09:52:40.335Z,42.88
2023-04-08T09:55:11.338Z,42.60
2023-04-08T09:57:57.860Z,40.65
2023-04-08T10:00:30.373Z,36.85
2023-04-08T10:03:15.677Z,39.20
2023-04-08T10:05:44.636Z,38.58
2023-04-08T10:08:13.889Z,39.70
2023-04-08T10:10:41.787Z,37.45
2023-04-08T10:13:09.459Z,37.58
2023-04-08T10:15:38.595Z,40.90
2023-04-08T10:18:08.234Z,39.92
2023-04-08T10:20:35.983Z,37.45
2023-04-08T10:23:07.580Z,41.70
2023-04-08T10:25:50.371Z,45.30
2023-04-08T10:28:20.294Z,36.05
2023-04-08T10:30:52.070Z,42.95
2023-04-08T10:35:55.748Z,35.78
2023-04-08T10:38:22.868Z,39.55
2023-04-08T10:40:51.554Z,37.63
2023-04-08T10:43:18.643Z,37.63
2023-04-08T10:45:48.625Z,32.22
2023-04-08T10:48:33.439Z,33.38
2023-04-08T10:51:04.217Z,36.33
2023-04-08T10:53:36.810Z,31.20
2023-04-08T10:56:15.773Z,27.17
2023-04-08T10:58:52.595Z,27.08
2023-04-08T11:01:19.978Z,27.95
2023-04-08T11:03:47.303Z,30.10
2023-04-08T11:06:17.279Z,21.80
2023-04-08T11:08:44.914Z,23.35
2023-04-08T11:11:12.559Z,23.48
2023-04-08T11:13:52.840Z,26.55
2023-04-08T11:16:24.335Z,23.27
2023-04-08T11:18:51.880Z,26.38
2023-04-08T11:21:20.425Z,24.60
2023-04-08T11:23:53.518Z,26.98
2023-04-08T11:26:21.600Z,23.38
2023-04-08T11:28:51.540Z,23.30
2023-04-08T11:31:23.441Z,21.48
2023-04-08T11:33:55.626Z,21.83
2023-04-08T11:36:24.043Z,22.55
2023-04-08T11:38:53.552Z,21.20
2023-04-08T11:41:22.482Z,21.00
2023-04-08T11:43:57.305Z,22.48
2023-04-08T11:46:24.845Z,22.95
2023-04-08T11:49:06.647Z,24.73
2023-04-08T11:51:35.717Z,21.10
2023-04-08T11:54:08.576Z,23.95
2023-04-08T11:56:48.048Z,21.90
2023-04-08T11:59:17.653Z,19.35
2023-04-08T12:01:46.110Z,21.73
2023-04-08T12:04:13.410Z,24.55
2023-04-08T12:06:47.169Z,22.05
2023-04-08T12:09:17.638Z,18.92
2023-04-08T12:11:51.437Z,21.05
2023-04-08T12:14:18.854Z,19.17
2023-04-08T12:16:49.880Z,19.45
2023-04-08T12:19:18.151Z,18.90
2023-04-08T12:21:48.418Z,20.65
2023-04-08T12:24:35.326Z,20.13
2023-04-08T12:27:03.276Z,19.70
2023-04-08T12:29:30.539Z,18.25
2023-04-08T12:31:58.516Z,18.83
2023-04-08T12:34:25.750Z,17.00
2023-04-08T12:36:52.824Z,22.27
2023-04-08T12:39:19.873Z,21.38
2023-04-08T12:41:46.969Z,19.75
2023-04-08T12:44:14.170Z,19.00
2023-04-08T12:46:41.340Z,19.67
2023-04-08T12:49:09.293Z,19.38
2023-04-08T12:51:36.697Z,23.67
2023-04-08T12:54:04.131Z,19.50
2023-04-08T12:56:33.661Z,20.45
2023-04-08T12:59:01.436Z,23.13
2023-04-08T13:01:28.967Z,22.08
2023-04-08T13:03:56.328Z,19.13
2023-04-08T13:06:26.737Z,21.27
2023-04-08T13:08:54.168Z,21.55
2023-04-08T13:11:21.508Z,22.15
2023-04-08T13:13:48.637Z,20.67
2023-04-08T13:16:17.807Z,20.48
2023-04-08T13:18:45.131Z,21.42
2023-04-08T13:21:12.165Z,19.17
2023-04-08T13:23:39.367Z,20.48
2023-04-08T13:26:14.658Z,19.50
2023-04-08T13:28:57.388Z,21.67
2023-04-08T13:32:17.341Z,15.43
2023-04-08T13:34:44.608Z,15.95
2023-04-08T13:37:12.000Z,16.95
2023-04-08T13:39:41.432Z,17.05
2023-04-08T13:42:11.016Z,12.75
2023-04-08T13:44:40.454Z,14.13
2023-04-08T13:47:07.494Z,17.48
2023-04-08T13:49:36.621Z,12.30
2023-04-08T13:52:03.929Z,13.80
2023-04-08T13:54:31.152Z,16.40
2023-04-08T13:56:58.127Z,14.27
2023-04-08T13:59:25.387Z,11.60
2023-04-08T14:01:56.215Z,9.40
2023-04-08T14:04:26.272Z,9.73
2023-04-08T14:06:58.316Z,9.02
2023-04-08T14:09:25.614Z,12.75
2023-04-08T14:11:57.938Z,11.45
2023-04-08T14:14:25.111Z,10.20
2023-04-08T14:16:52.906Z,8.93
2023-04-08T14:19:20.050Z,8.82
2023-04-08T14:21:49.792Z,7.53
2023-04-08T14:24:18.565Z,8.93
2023-04-08T14:26:45.666Z,9.90
2023-04-08T14:29:18.742Z,9.80
2023-04-08T14:31:46.681Z,10.40
2023-04-08T14:34:13.800Z,7.72
2023-04-08T14:36:41.428Z,10.10
2023-04-08T14:39:12.705Z,8.35
2023-04-08T14:41:48.693Z,11.57
2023-04-08T14:44:15.996Z,9.60
2023-04-08T14:46:43.358Z,27.55
2023-04-08T14:49:10.729Z,9.85
2023-04-08T14:51:38.241Z,8.15
2023-04-08T14:54:09.139Z,6.43
2023-04-08T14:56:36.504Z,6.03
2023-04-08T14:59:03.563Z,7.47
2023-04-08T15:01:32.463Z,9.73
2023-04-08T15:04:02.358Z,7.38
2023-04-08T15:06:32.549Z,7.47
2023-04-08T15:09:03.128Z,7.80
2023-04-08T15:11:30.280Z,10.13
2023-04-08T15:13:57.247Z,9.85
2023-04-08T15:16:27.359Z,8.75
2023-04-08T15:18:55.595Z,8.02
2023-04-08T15:21:23.001Z,7.35
2023-04-08T15:24:00.741Z,12.50
2023-04-08T15:26:28.145Z,8.45
2023-04-08T15:29:01.303Z,13.18
2023-04-08T15:31:29.544Z,8.02
2023-04-08T15:33:59.566Z,8.20
2023-04-08T15:36:32.948Z,6.93
2023-04-08T15:39:06.787Z,8.35
2023-04-08T15:41:34.377Z,6.65
2023-04-08T15:44:02.290Z,8.27
2023-04-08T15:46:31.456Z,9.40
2023-04-08T15:49:00.235Z,9.77
2023-04-08T15:51:31.407Z,15.55
2023-04-08T15:54:03.812Z,12.68
2023-04-08T15:56:31.270Z,16.52
2023-04-08T15:59:01.051Z,11.88
2023-04-08T16:01:34.323Z,12.38
2023-04-08T16:04:10.273Z,14.20
2023-04-08T16:06:54.149Z,13.60
2023-04-08T16:09:27.611Z,17.08
2023-04-08T16:11:55.864Z,15.15
2023-04-08T16:14:29.318Z,15.07
2023-04-08T16:17:21.368Z,15.05
2023-04-08T16:19:57.504Z,16.23
2023-04-08T16:22:27.947Z,16.25
2023-04-08T16:27:46.898Z,15.85
2023-04-08T16:30:23.503Z,14.75
2023-04-08T16:32:53.128Z,16.13
2023-04-08T16:35:22.469Z,20.25
2023-04-08T16:37:51.859Z,20.92
2023-04-08T16:40:31.685Z,23.95
2023-04-08T16:43:04.970Z,18.25
2023-04-08T16:45:34.998Z,15.82
2023-04-08T16:48:04.860Z,14.00
2023-04-08T16:50:31.998Z,16.55
2023-04-08T16:52:59.168Z,13.60
2023-04-08T16:55:26.355Z,14.75
2023-04-08T16:57:56.073Z,11.80
2023-04-08T17:00:27.298Z,12.65
2023-04-08T17:03:02.612Z,12.60
2023-04-08T17:06:06.782Z,14.73
2023-04-08T17:08:36.271Z,12.90
2023-04-08T17:11:13.602Z,16.10
2023-04-08T17:13:43.087Z,15.52
2023-04-08T17:16:15.091Z,18.23
2023-04-08T17:18:43.097Z,15.52
2023-04-08T17:21:10.619Z,20.98
2023-04-08T17:23:37.623Z,45.42
2023-04-08T17:26:07.624Z,177.52
2023-04-08T17:28:35.454Z,16.63
2023-04-08T17:31:05.043Z,19.40
2023-04-08T17:33:34.057Z,19.17
2023-04-08T17:36:03.683Z,17.08
2023-04-08T17:38:31.460Z,19.52
2023-04-08T17:41:00.043Z,19.25
2023-04-08T17:43:29.505Z,29.33
2023-04-08T17:46:00.918Z,24.35
2023-04-08T17:48:28.849Z,28.75
2023-04-08T17:51:03.844Z,24.00
2023-04-08T17:53:32.203Z,23.42
2023-04-08T17:55:59.512Z,18.42
2023-04-08T17:58:27.240Z,19.00
2023-04-08T18:00:55.792Z,18.35
2023-04-08T18:03:26.400Z,23.95
2023-04-08T18:05:55.214Z,19.05
2023-04-08T18:08:24.165Z,15.35
2023-04-08T18:11:08.614Z,18.05
2023-04-08T18:13:35.762Z,17.25
2023-04-08T18:16:02.752Z,15.70
2023-04-08T18:18:30.896Z,18.98
2023-04-08T18:20:57.945Z,14.95
2023-04-08T18:23:25.063Z,15.27
2023-04-08T18:25:52.383Z,17.08
2023-04-08T18:28:19.512Z,17.58
2023-04-08T18:30:51.548Z,15.35
2023-04-08T18:33:18.668Z,17.58
2023-04-08T18:35:45.877Z,18.67
2023-04-08T18:38:13.189Z,18.38
2023-04-08T18:40:40.794Z,17.88
2023-04-08T18:43:10.437Z,14.60
2023-04-08T18:45:37.436Z,18.08
2023-04-08T18:48:04.465Z,15.43
2023-04-08T18:50:31.507Z,14.98
2023-04-08T18:52:58.775Z,17.92
2023-04-08T18:55:30.140Z,17.25
2023-04-08T18:57:57.858Z,17.52
2023-04-08T19:00:25.068Z,17.33
2023-04-08T19:02:52.166Z,17.27
2023-04-08T19:05:19.552Z,16.10
2023-04-08T19:07:48.804Z,17.95
2023-04-08T19:10:16.222Z,18.67
2023-04-08T19:12:43.211Z,19.58
2023-04-08T19:15:13.501Z,17.23
2023-04-08T19:17:40.441Z,16.75
2023-04-08T19:20:11.152Z,19.55
2023-04-08T19:22:41.223Z,22.60
2023-04-08T19:25:08.612Z,19.92
2023-04-08T19:27:38.730Z,20.40
2023-04-08T19:30:06.968Z,25.05
2023-04-08T19:32:35.381Z,21.23
2023-04-08T19:35:02.486Z,20.42
2023-04-08T19:37:29.519Z,20.38
2023-04-08T19:39:57.922Z,19.58
2023-04-08T19:42:27.760Z,23.88
2023-04-08T19:44:57.776Z,20.75
2023-04-08T19:47:26.736Z,20.95
2023-04-08T19:49:53.725Z,22.25
2023-04-08T19:52:22.654Z,20.90
2023-04-08T19:54:51.436Z,19.33
2023-04-08T19:57:18.777Z,19.95
2023-04-08T19:59:45.958Z,18.40
2023-04-08T20:02:12.982Z,16.95
2023-04-08T20:04:42.228Z,18.13
2023-04-08T20:07:09.328Z,19.75
2023-04-08T20:09:38.981Z,15.80
2023-04-08T20:12:07.826Z,18.10
2023-04-08T20:14:37.922Z,17.48
2023-04-08T20:17:08.111Z,16.35
2023-04-08T20:19:37.873Z,18.65
2023-04-08T20:22:05.208Z,16.33
2023-04-08T20:24:35.592Z,16.48
2023-04-08T20:27:04.578Z,17.95
2023-04-08T20:29:32.339Z,16.38
2023-04-08T20:32:00.592Z,17.50
2023-04-08T20:34:27.542Z,20.67
2023-04-08T20:36:54.810Z,18.13
2023-04-08T20:39:29.725Z,18.17
2023-04-08T20:42:00.770Z,17.13
2023-04-08T20:44:30.277Z,16.75
2023-04-08T20:46:58.046Z,15.80
2023-04-08T20:49:25.795Z,16.90
2023-04-08T20:51:55.452Z,15.70
2023-04-08T20:54:26.964Z,16.02
2023-04-08T20:56:53.856Z,16.95
2023-04-08T20:59:20.962Z,18.33
2023-04-08T21:01:48.260Z,18.23
2023-04-08T21:04:16.712Z,13.00
2023-04-08T21:06:43.734Z,15.45
2023-04-08T21:09:11.416Z,14.63
2023-04-08T21:11:38.352Z,13.90
2023-04-08T21:14:09.178Z,15.05
2023-04-08T21:16:36.143Z,18.83
2023-04-08T21:19:05.820Z,27.80
2023-04-08T21:21:32.919Z,22.00
2023-04-08T21:24:00.665Z,24.45
2023-04-08T21:26:27.802Z,24.77
2023-04-08T21:28:54.767Z,38.90
2023-04-08T21:31:21.723Z,22.15
2023-04-08T21:33:48.728Z,29.92
2023-04-08T21:36:15.856Z,39.38
2023-04-08T21:38:43.173Z,30.10
2023-04-08T21:41:10.057Z,24.35
2023-04-08T21:43:37.047Z,28.95
2023-04-08T21:46:04.130Z,39.60
2023-04-08T21:48:31.233Z,34.47
2023-04-08T21:50:58.317Z,37.05
2023-04-08T21:53:25.326Z,43.22
2023-04-08T21:55:52.231Z,52.80
2023-04-08T21:58:19.335Z,42.40
2023-04-08T22:00:46.500Z,36.50
2023-04-08T22:03:13.718Z,51.65
2023-04-08T22:05:40.770Z,41.17
2023-04-08T22:08:07.972Z,46.58
2023-04-08T22:10:35.243Z,46.55
2023-04-08T22:13:02.202Z,41.05
2023-04-08T22:15:29.122Z,44.05
2023-04-08T22:17:56.129Z,38.80
2023-04-08T22:20:23.180Z,45.80
2023-04-08T22:22:50.462Z,54.80
2023-04-08T22:25:17.681Z,46.15
2023-04-08T22:27:45.425Z,36.65
2023-04-08T22:30:13.176Z,27.00
2023-04-08T22:32:40.696Z,19.08
2023-04-08T22:35:09.531Z,16.60
2023-04-08T22:37:37.002Z,17.80
2023-04-08T22:40:06.150Z,17.80
2023-04-08T22:42:33.412Z,15.38
2023-04-08T22:45:00.671Z,14.20
2023-04-08T22:47:28.137Z,15.75
2023-04-08T22:49:55.559Z,13.63
2023-04-08T22:52:22.704Z,13.18
2023-04-08T22:54:49.785Z,13.73
2023-04-08T22:57:18.694Z,13.77
2023-04-08T22:59:46.064Z,13.23
2023-04-08T23:02:16.581Z,11.10
2023-04-08T23:04:44.424Z,12.80
2023-04-08T23:07:11.376Z,12.63
2023-04-08T23:09:38.363Z,12.57
2023-04-08T23:12:05.672Z,13.65
2023-04-08T23:14:32.921Z,12.93
2023-04-08T23:17:00.179Z,10.23
2023-04-08T23:19:27.111Z,13.05
2023-04-08T23:21:54.102Z,10.63
2023-04-08T23:24:21.182Z,11.55
2023-04-08T23:26:50.163Z,11.18
2023-04-08T23:29:17.228Z,10.23
2023-04-08T23:31:44.386Z,10.93
2023-04-08T23:34:11.852Z,12.68
2023-04-08T23:36:38.741Z,9.52
2023-04-08T23:39:07.765Z,11.57
2023-04-08T23:41:37.035Z,8.82
2023-04-08T23:44:04.114Z,9.98
2023-04-08T23:46:31.403Z,12.15
2023-04-08T23:48:58.523Z,8.93
2023-04-08T23:51:32.780Z,9.63
2023-04-08T23:53:59.890Z,8.00
2023-04-08T23:56:27.495Z,8.38
2023-04-08T23:58:54.655Z,8.82
